Time;durP1;ratioP1;P1;durP2;ratioP2;P2;SDS_P1;SDS_P2;PMS_P1;PMS_P2;Temp;Humidity;BMP_temperature;BMP_pressure;BME280_temperature;BME280_humidity;BME280_pressure;Samples;Min_cycle;Max_cycle;Signal;HPM_P1;HPM_P2
2023/01/20 00:01:35;;;;;;;50.03;21.35;;;;;;;4.09;100.00;99521.00;5072435;28;20535;-49
2023/01/20 00:04:01;;;;;;;57.75;21.63;;;;;;;4.10;100.00;99525.28;5075067;28;20042;-47
2023/01/20 00:06:28;;;;;;;50.13;19.98;;;;;;;4.07;100.00;99522.75;5087408;28;20154;-48
2023/01/20 00:08:57;;;;;;;52.70;20.98;;;;;;;4.03;100.00;99523.63;5088862;28;20043;-48
2023/01/20 00:11:23;;;;;;;48.55;20.67;;;;;;;4.07;100.00;99527.03;5090176;28;20051;-50
2023/01/20 00:13:53;;;;;;;48.10;21.45;;;;;;;4.08;100.00;99521.03;5059783;28;20107;-49
2023/01/20 00:16:19;;;;;;;47.55;20.67;;;;;;;4.12;100.00;99527.84;5084140;28;20044;-50
2023/01/20 00:18:45;;;;;;;47.72;21.38;;;;;;;4.15;100.00;99520.06;5078839;28;20089;-47
2023/01/20 00:21:13;;;;;;;49.85;21.25;;;;;;;4.11;100.00;99529.56;5051968;28;20048;-47
2023/01/20 00:23:40;;;;;;;46.30;18.15;;;;;;;3.96;100.00;99495.44;5068557;28;20040;-53
2023/01/20 00:26:08;;;;;;;44.30;19.70;;;;;;;4.11;100.00;99534.69;5069776;28;20044;-50
2023/01/20 00:28:34;;;;;;;46.35;21.80;;;;;;;4.14;100.00;99526.94;5069650;28;20569;-49
2023/01/20 00:31:13;;;;;;;45.88;20.25;;;;;;;4.23;100.00;99520.84;5035555;28;20036;-47
2023/01/20 00:33:40;;;;;;;43.95;20.13;;;;;;;4.24;100.00;99515.66;5069961;28;20135;-47
2023/01/20 00:36:06;;;;;;;45.33;18.27;;;;;;;4.07;100.00;99498.75;5098133;28;20119;-50
2023/01/20 00:38:33;;;;;;;46.13;18.55;;;;;;;4.14;100.00;99502.91;5088940;28;20058;-48
2023/01/20 00:40:59;;;;;;;42.30;20.08;;;;;;;4.17;100.00;99519.19;5071924;28;20551;-49
2023/01/20 00:43:25;;;;;;;46.22;20.55;;;;;;;4.16;100.00;99524.34;5089767;28;20127;-48
2023/01/20 00:45:50;;;;;;;42.75;18.17;;;;;;;4.01;100.00;99489.38;5073643;28;20052;-48
2023/01/20 00:48:16;;;;;;;42.03;19.77;;;;;;;4.18;100.00;99518.34;5070384;28;20113;-48
2023/01/20 00:50:42;;;;;;;45.50;19.83;;;;;;;4.18;100.00;99520.06;5088360;28;20048;-50
2023/01/20 00:53:08;;;;;;;50.05;21.20;;;;;;;4.19;100.00;99516.59;5088627;28;20131;-51
2023/01/20 00:55:34;;;;;;;41.53;17.02;;;;;;;4.23;100.00;99547.44;5066481;28;20044;-50
2023/01/20 00:58:00;;;;;;;41.78;17.95;;;;;;;4.20;100.00;99518.28;5069409;28;20399;-49
2023/01/20 01:00:26;;;;;;;42.42;18.60;;;;;;;4.04;100.00;99494.47;5086871;28;20044;-49
2023/01/20 01:02:52;;;;;;;48.22;20.10;;;;;;;4.25;100.00;99524.25;5067160;28;20101;-52
2023/01/20 01:05:18;;;;;;;42.95;19.73;;;;;;;4.29;100.00;99522.50;5070146;28;20075;-46
2023/01/20 01:07:44;;;;;;;44.65;19.15;;;;;;;4.27;100.00;99519.94;5083408;28;20120;-48
2023/01/20 01:10:10;;;;;;;44.70;18.55;;;;;;;4.25;100.00;99516.53;5087919;28;20040;-50
2023/01/20 01:12:36;;;;;;;41.03;16.23;;;;;;;4.24;100.00;99537.97;5088434;28;20043;-49
2023/01/20 01:15:03;;;;;;;46.80;20.38;;;;;;;3.95;100.00;99475.72;5086648;28;20127;-46
2023/01/20 01:17:29;;;;;;;42.20;17.90;;;;;;;4.23;100.00;99508.00;5069883;28;20534;-45
2023/01/20 01:19:55;;;;;;;45.38;18.85;;;;;;;4.28;100.00;99508.78;5067760;28;20048;-47
2023/01/20 01:22:21;;;;;;;44.05;19.63;;;;;;;4.31;100.00;99519.03;5074443;28;20062;-47
2023/01/20 01:24:47;;;;;;;46.17;18.83;;;;;;;4.34;100.00;99502.72;5089035;28;20414;-50
2023/01/20 01:27:13;;;;;;;35.90;14.93;;;;;;;4.31;100.00;99510.44;5075684;28;20040;-46
2023/01/20 01:29:39;;;;;;;42.20;18.90;;;;;;;4.31;100.00;99513.03;5075695;28;20055;-49
2023/01/20 01:32:06;;;;;;;38.85;17.45;;;;;;;4.31;100.00;99525.91;5087935;28;20047;-48
2023/01/20 01:34:32;;;;;;;42.50;18.70;;;;;;;4.29;100.00;99528.50;5069147;28;20036;-48
2023/01/20 01:36:58;;;;;;;43.58;18.67;;;;;;;4.32;100.00;99519.88;5074705;28;20064;-47
2023/01/20 01:39:24;;;;;;;40.88;17.92;;;;;;;4.21;100.00;99494.28;5067511;28;20538;-48
2023/01/20 01:41:50;;;;;;;43.03;17.60;;;;;;;4.30;100.00;99516.47;5067188;28;20362;-49
2023/01/20 01:44:16;;;;;;;45.47;18.45;;;;;;;4.33;100.00;99517.31;5050744;28;20040;-47
2023/01/20 01:46:42;;;;;;;31.25;15.77;;;;;;;4.37;100.00;99511.25;5080451;28;20503;-46
2023/01/20 01:49:19;;;;;;;37.60;16.23;;;;;;;4.38;100.00;99512.09;5072351;28;20060;-48
2023/01/20 01:51:56;;;;;;;31.08;14.35;;;;;;;4.34;100.00;99506.16;5067463;28;20535;-48
2023/01/20 01:54:26;;;;;;;39.70;16.45;;;;;;;4.30;100.00;99513.88;5067230;28;20053;-47
2023/01/20 01:56:52;;;;;;;40.72;18.08;;;;;;;4.31;100.00;99531.91;5077457;28;20077;-47
2023/01/20 01:59:19;;;;;;;38.58;16.63;;;;;;;4.32;100.00;99510.44;5087613;28;20035;-48
2023/01/20 02:01:48;;;;;;;40.00;18.27;;;;;;;4.13;100.00;99490.97;5102308;28;20472;-45
2023/01/20 02:04:17;;;;;;;42.97;17.80;;;;;;;4.19;100.00;99496.84;5073219;28;20091;-46
2023/01/20 02:06:47;;;;;;;36.50;17.27;;;;;;;4.39;100.00;99522.38;5070581;28;20052;-47
2023/01/20 02:09:13;;;;;;;39.05;17.25;;;;;;;4.39;100.00;99521.53;5066823;28;20036;-48
2023/01/20 02:11:47;;;;;;;37.72;16.70;;;;;;;4.41;100.00;99527.47;5067291;28;20044;-49
2023/01/20 02:14:15;;;;;;;34.53;15.90;;;;;;;4.21;100.00;99492.56;5068511;28;20530;-48
2023/01/20 02:17:01;;;;;;;37.03;16.30;;;;;;;4.36;100.00;99518.97;5067016;28;20036;-47
2023/01/20 02:19:49;;;;;;;40.25;16.52;;;;;;;4.34;100.00;99513.00;5070681;28;20048;-47
2023/01/20 02:22:21;;;;;;;35.65;16.83;;;;;;;4.35;100.00;99524.97;5067024;28;20496;-48
2023/01/20 02:25:13;;;;;;;36.92;15.77;;;;;;;4.34;100.00;99524.16;5068275;28;20048;-48
2023/01/20 02:28:05;;;;;;;34.92;14.40;;;;;;;4.36;100.00;99514.69;5088056;28;20028;-48
2023/01/20 02:30:37;;;;;;;34.17;15.13;;;;;;;4.22;100.00;99501.13;5083806;28;20059;-50
2023/01/20 02:33:18;;;;;;;35.53;15.00;;;;;;;4.40;100.00;99530.91;5082382;28;20154;-50
2023/01/20 02:35:45;;;;;;;37.50;15.25;;;;;;;4.42;100.00;99539.50;5050292;28;20037;-45
2023/01/20 02:38:35;;;;;;;40.25;17.05;;;;;;;4.43;100.00;99536.91;5101975;28;20052;-51
2023/01/20 02:41:09;;;;;;;41.60;16.52;;;;;;;4.40;100.00;99536.94;5073518;28;20075;-49
2023/01/20 02:43:46;;;;;;;37.47;16.92;;;;;;;4.45;100.00;99535.16;5068189;28;20346;-47
2023/01/20 02:46:20;;;;;;;36.35;16.05;;;;;;;4.43;100.00;99524.03;5069405;28;20032;-47
2023/01/20 02:48:57;;;;;;;38.63;16.85;;;;;;;4.47;100.00;99541.13;5072709;28;20040;-48
2023/01/20 02:51:27;;;;;;;37.35;14.90;;;;;;;4.20;99.77;99495.13;5081450;28;20046;-49
2023/01/20 02:53:56;;;;;;;35.85;16.77;;;;;;;4.44;99.33;99532.63;5070168;28;20097;-47
2023/01/20 02:56:24;;;;;;;32.20;14.77;;;;;;;4.44;98.93;99535.19;5078105;28;20046;-47
2023/01/20 02:58:55;;;;;;;24.15;11.50;;;;;;;4.41;98.44;99548.94;5068460;28;20047;-50
2023/01/20 03:01:29;;;;;;;39.08;15.77;;;;;;;4.39;97.78;99534.38;5053451;28;20072;-48
2023/01/20 03:03:58;;;;;;;34.30;14.13;;;;;;;4.35;97.23;99541.28;5090635;28;20036;-51
2023/01/20 03:06:26;;;;;;;36.65;16.13;;;;;;;4.35;96.95;99533.56;5069338;28;20040;-45
2023/01/20 03:08:53;;;;;;;35.13;14.27;;;;;;;4.23;96.38;99537.16;5079826;28;20044;-48
2023/01/20 03:11:19;;;;;;;33.70;14.02;;;;;;;4.32;95.78;99536.19;5071627;28;20040;-47
2023/01/20 03:13:49;;;;;;;34.35;13.65;;;;;;;4.35;95.72;99550.72;5079541;28;20422;-50
2023/01/20 03:16:15;;;;;;;;;;;;;;;4.36;95.05;99544.69;5080367;28;20036;-45
2023/01/20 03:18:41;;;;;;;31.85;13.35;;;;;;;4.32;95.10;99545.63;5078833;28;20022;-51
2023/01/20 03:21:08;;;;;;;33.70;13.93;;;;;;;4.34;94.37;99561.91;5070980;28;20045;-48
2023/01/20 03:23:56;;;;;;;37.33;14.45;;;;;;;4.40;94.84;99560.09;5069685;28;20048;-50
2023/01/20 03:26:23;;;;;;;31.67;13.68;;;;;;;4.39;94.06;99554.97;5085346;28;20052;-47
2023/01/20 03:28:49;;;;;;;25.85;12.55;;;;;;;4.43;93.86;99562.66;5078939;28;20173;-46
2023/01/20 03:31:21;;;;;;;33.33;14.00;;;;;;;4.44;93.36;99571.22;5090439;28;20036;-47
2023/01/20 03:33:49;;;;;;;37.55;15.10;;;;;;;4.18;93.38;99515.75;5090063;28;20050;-49
2023/01/20 03:36:15;;;;;;;32.53;12.82;;;;;;;4.44;92.93;99569.50;5068900;28;20059;-51
2023/01/20 03:38:42;;;;;;;34.53;15.80;;;;;;;4.28;93.23;99543.94;5069592;28;20059;-49
2023/01/20 03:41:29;;;;;;;39.28;14.68;;;;;;;4.51;93.33;99568.53;5070962;28;20074;-52
2023/01/20 03:44:02;;;;;;;36.08;14.00;;;;;;;4.52;92.57;99579.69;5070712;28;20160;-49
2023/01/20 03:46:32;;;;;;;38.03;14.15;;;;;;;4.53;92.31;99581.41;5052526;28;20402;-52
2023/01/20 03:49:04;;;;;;;23.17;10.85;;;;;;;4.55;91.68;99577.09;5062705;28;20130;-49
2023/01/20 03:51:43;;;;;;;32.00;13.57;;;;;;;4.55;91.02;99577.94;5090577;28;20051;-49
2023/01/20 03:54:12;;;;;;;28.70;13.27;;;;;;;4.57;90.91;99577.91;5055818;28;20062;-46
2023/01/20 03:56:52;;;;;;;28.95;13.57;;;;;;;4.42;90.31;99552.34;5101971;28;20282;-46
2023/01/20 03:59:19;;;;;;;38.38;13.35;;;;;;;4.58;89.87;99582.19;5072843;28;20048;-46
2023/01/20 04:01:45;;;;;;;29.58;11.82;;;;;;;4.43;89.71;99551.50;5073855;28;20105;-48
2023/01/20 04:04:15;;;;;;;33.75;13.43;;;;;;;4.61;89.69;99579.56;5071346;28;20044;-50
2023/01/20 04:06:42;;;;;;;35.22;14.40;;;;;;;4.44;89.47;99554.06;5086928;28;20139;-50
2023/01/20 04:09:11;;;;;;;31.73;13.27;;;;;;;4.60;88.92;99581.34;5068982;28;20082;-46
2023/01/20 04:11:38;;;;;;;34.92;13.88;;;;;;;4.61;88.32;99574.44;5090133;28;20119;-48
2023/01/20 04:14:04;;;;;;;35.95;13.88;;;;;;;4.58;88.52;99588.22;5090437;28;20081;-49
2023/01/20 04:16:29;;;;;;;28.95;11.82;;;;;;;4.63;88.24;99581.28;5080825;28;20045;-47
2023/01/20 04:18:55;;;;;;;34.75;13.82;;;;;;;4.63;88.29;99576.13;5070027;28;20041;-45
2023/01/20 04:21:33;;;;;;;29.23;11.18;;;;;;;4.63;87.48;99585.56;5068267;28;20535;-50
2023/01/20 04:24:05;;;;;;;31.75;13.00;;;;;;;4.64;87.24;99584.72;5068201;28;20449;-46
2023/01/20 04:26:31;;;;;;;31.40;14.38;;;;;;;4.61;86.84;99605.31;5072189;28;20071;-48
2023/01/20 04:28:57;;;;;;;34.55;13.90;;;;;;;4.60;87.12;99590.78;5068348;28;20040;-49
2023/01/20 04:31:23;;;;;;;35.03;13.85;;;;;;;4.62;86.85;99596.72;5093283;28;20043;-48
2023/01/20 04:33:49;;;;;;;33.15;13.90;;;;;;;4.60;86.37;99599.34;5080110;28;20036;-49
2023/01/20 04:36:14;;;;;;;27.27;12.00;;;;;;;4.65;86.41;99602.72;5068368;28;20040;-49
2023/01/20 04:38:40;;;;;;;31.73;13.23;;;;;;;4.65;85.96;99596.72;5069750;28;20094;-52
2023/01/20 04:41:09;;;;;;;32.88;11.98;;;;;;;4.45;85.16;99580.66;5069659;28;20044;-49
2023/01/20 04:43:35;;;;;;;31.02;11.88;;;;;;;4.60;85.17;99614.81;5068573;28;20068;-47
2023/01/20 04:46:00;;;;;;;28.80;12.45;;;;;;;4.62;85.42;99618.19;5083634;28;20075;-47
2023/01/20 04:48:26;;;;;;;31.85;12.93;;;;;;;4.64;85.79;99600.16;5087898;28;20043;-48
2023/01/20 04:50:52;;;;;;;35.65;12.07;;;;;;;4.67;85.60;99616.41;5083845;28;20728;-48
2023/01/20 04:53:18;;;;;;;30.30;10.93;;;;;;;4.65;85.00;99612.16;5087341;28;20218;-46
2023/01/20 04:55:45;;;;;;;36.28;13.52;;;;;;;4.67;85.33;99639.59;5088295;28;20036;-46
2023/01/20 04:58:11;;;;;;;31.75;13.70;;;;;;;4.33;84.76;99568.78;5087041;28;20101;-47
2023/01/20 05:00:37;;;;;;;31.73;13.27;;;;;;;4.55;84.71;99608.00;5088752;28;20048;-46
2023/01/20 05:03:04;;;;;;;33.60;12.38;;;;;;;4.69;84.60;99606.97;5086198;28;20040;-48
2023/01/20 05:05:30;;;;;;;30.90;13.18;;;;;;;4.74;83.98;99631.78;5087526;28;20031;-47
2023/01/20 05:07:57;;;;;;;29.65;12.57;;;;;;;4.72;84.27;99608.63;5041592;28;20466;-48
2023/01/20 05:10:23;;;;;;;29.85;12.02;;;;;;;4.65;83.90;99596.72;5067550;28;20044;-48
2023/01/20 05:12:48;;;;;;;31.15;12.43;;;;;;;4.75;84.04;99616.34;5067502;28;20461;-44
2023/01/20 05:15:14;;;;;;;24.90;10.75;;;;;;;4.73;83.69;99620.63;5068689;28;20048;-49
2023/01/20 05:17:40;;;;;;;26.25;11.05;;;;;;;4.74;83.73;99619.78;5080278;28;20036;-48
2023/01/20 05:20:07;;;;;;;33.45;12.30;;;;;;;4.75;83.50;99613.75;5086936;28;20075;-47
2023/01/20 05:22:33;;;;;;;29.65;12.75;;;;;;;4.57;83.50;99595.94;5062865;28;20143;-46
2023/01/20 05:24:59;;;;;;;25.60;11.45;;;;;;;4.59;83.46;99595.06;5074671;28;20781;-47
2023/01/20 05:27:25;;;;;;;29.83;11.63;;;;;;;4.74;83.13;99622.34;5049039;28;20040;-48
2023/01/20 05:29:51;;;;;;;33.22;13.55;;;;;;;4.81;83.52;99628.28;5067337;28;20071;-48
2023/01/20 05:32:16;;;;;;;28.95;12.10;;;;;;;4.83;82.99;99627.38;5073784;28;20078;-49
2023/01/20 05:34:42;;;;;;;30.60;13.70;;;;;;;4.84;83.29;99647.13;5085572;28;20069;-48
2023/01/20 05:37:08;;;;;;;24.25;10.50;;;;;;;4.81;82.45;99618.84;5080400;28;20057;-49
2023/01/20 05:39:34;;;;;;;31.42;12.43;;;;;;;4.79;81.68;99630.88;5068589;28;20158;-48
2023/01/20 05:42:01;;;;;;;32.00;11.88;;;;;;;4.77;82.31;99637.75;5076198;28;20040;-50
2023/01/20 05:44:27;;;;;;;28.90;12.77;;;;;;;4.44;82.06;99595.25;5088295;28;20044;-47
2023/01/20 05:46:53;;;;;;;25.20;11.48;;;;;;;4.80;82.14;99626.56;5084078;28;20177;-46
2023/01/20 05:49:18;;;;;;;30.92;11.98;;;;;;;4.79;81.45;99627.44;5050546;28;20126;-47
2023/01/20 05:51:44;;;;;;;35.83;12.88;;;;;;;4.83;81.99;99624.81;5068392;28;20528;-48
2023/01/20 05:54:10;;;;;;;32.47;12.73;;;;;;;4.73;82.03;99594.88;5068459;28;20142;-48
2023/01/20 05:56:36;;;;;;;30.05;11.45;;;;;;;4.88;81.71;99619.59;5067373;28;20044;-50
2023/01/20 05:59:03;;;;;;;27.83;11.68;;;;;;;4.80;81.35;99636.88;5074962;28;20141;-47
2023/01/20 06:01:29;;;;;;;32.40;12.82;;;;;;;4.84;81.39;99639.41;5074125;28;20048;-46
2023/01/20 06:03:55;;;;;;;31.48;13.55;;;;;;;4.82;81.59;99641.13;5084629;28;20050;-50
2023/01/20 06:06:21;;;;;;;34.20;13.85;;;;;;;4.94;81.75;99643.56;5037160;28;20060;-47
2023/01/20 06:08:48;;;;;;;33.47;14.30;;;;;;;4.90;80.83;99641.03;5066726;28;20046;-47
2023/01/20 06:11:14;;;;;;;29.80;12.27;;;;;;;4.86;81.00;99644.53;5087641;28;20575;-52
2023/01/20 06:13:40;;;;;;;31.00;13.38;;;;;;;4.94;81.17;99634.97;5054211;28;20142;-48
2023/01/20 06:16:06;;;;;;;31.48;13.60;;;;;;;4.92;81.20;99654.78;5088633;28;20119;-48
2023/01/20 06:18:33;;;;;;;32.50;12.35;;;;;;;4.90;81.19;99664.22;5083923;28;20032;-46
2023/01/20 06:20:59;;;;;;;28.65;12.93;;;;;;;4.90;80.97;99659.94;5068337;28;20120;-50
2023/01/20 06:23:25;;;;;;;33.10;13.30;;;;;;;4.91;80.50;99664.22;5067890;28;20437;-47
2023/01/20 06:26:18;;;;;;;35.38;13.15;;;;;;;4.92;80.76;99665.91;5080934;28;20043;-47
2023/01/20 06:28:44;;;;;;;34.50;13.63;;;;;;;4.93;80.95;99667.63;5076728;28;20271;-49
2023/01/20 06:31:12;;;;;;;37.05;14.90;;;;;;;4.95;80.68;99675.34;5097861;28;20050;-49
2023/01/20 06:33:39;;;;;;;30.48;12.52;;;;;;;4.93;80.61;99690.78;5087593;28;20071;-48
2023/01/20 06:36:06;;;;;;;35.20;14.80;;;;;;;4.90;80.38;99680.53;5097688;28;20040;-46
2023/01/20 06:38:34;;;;;;;33.85;13.65;;;;;;;4.97;80.35;99681.34;5090162;28;20088;-49
2023/01/20 06:41:02;;;;;;;41.30;14.60;;;;;;;4.97;80.48;99671.03;5128209;27;20523;-45
2023/01/20 06:43:29;;;;;;;37.78;13.48;;;;;;;4.98;79.88;99676.13;5101079;28;20126;-46
2023/01/20 06:46:04;;;;;;;35.67;14.00;;;;;;;5.01;80.47;99677.84;5108099;28;20040;-50
2023/01/20 06:48:30;;;;;;;37.58;12.63;;;;;;;4.97;79.93;99696.78;5099876;28;20119;-49
2023/01/20 06:51:05;;;;;;;33.45;14.27;;;;;;;4.93;80.10;99708.81;5092078;28;20122;-47
2023/01/20 06:53:31;;;;;;;32.88;13.50;;;;;;;4.92;79.69;99694.22;5095536;28;20400;-45
2023/01/20 06:55:58;;;;;;;27.02;11.10;;;;;;;4.95;79.78;99712.25;5107935;28;20552;-51
2023/01/20 06:58:26;;;;;;;30.23;13.55;;;;;;;4.92;79.78;99704.53;5083706;28;20045;-49
2023/01/20 07:00:52;;;;;;;34.88;12.75;;;;;;;4.92;79.69;99714.03;5070505;28;20044;-49
2023/01/20 07:03:18;;;;;;;36.28;14.13;;;;;;;4.89;79.34;99717.47;5064987;28;20042;-49
2023/01/20 07:05:54;;;;;;;28.92;11.73;;;;;;;4.88;79.16;99715.75;5089965;28;20150;-45
2023/01/20 07:08:20;;;;;;;31.02;13.57;;;;;;;4.89;79.46;99721.75;5087893;28;20490;-47
2023/01/20 07:10:45;;;;;;;32.53;13.75;;;;;;;4.92;79.19;99730.31;5091279;28;20069;-45
2023/01/20 07:13:11;;;;;;;27.45;12.57;;;;;;;4.93;79.28;99721.72;5089500;28;20499;-47
2023/01/20 07:15:37;;;;;;;32.15;12.90;;;;;;;4.92;79.69;99730.31;5091654;28;20040;-46
2023/01/20 07:18:03;;;;;;;37.63;14.15;;;;;;;4.58;79.68;99662.00;5088342;28;20590;-48
2023/01/20 07:20:29;;;;;;;39.83;14.50;;;;;;;4.96;79.13;99719.13;5069898;28;20037;-48
2023/01/20 07:22:58;;;;;;;33.35;12.93;;;;;;;4.97;79.16;99725.13;5079193;28;20036;-50
2023/01/20 07:25:24;;;;;;;33.55;14.18;;;;;;;4.96;79.01;99726.00;5091190;28;20051;-48
2023/01/20 07:27:50;;;;;;;29.83;13.45;;;;;;;5.01;79.42;99731.94;5110132;28;20089;-47
2023/01/20 07:30:16;;;;;;;36.13;14.82;;;;;;;5.07;79.35;99730.16;5110359;28;20042;-48
2023/01/20 07:32:42;;;;;;;32.33;12.20;;;;;;;5.05;78.70;99736.19;5111629;28;20409;-53
2023/01/20 07:35:08;;;;;;;34.92;14.50;;;;;;;5.00;78.47;99725.09;5103182;28;20085;-50
2023/01/20 07:37:34;;;;;;;33.67;13.52;;;;;;;4.93;78.41;99713.97;5088879;28;21398;-50
2023/01/20 07:40:00;;;;;;;37.08;14.20;;;;;;;5.06;78.46;99725.00;5073925;28;20036;-51
2023/01/20 07:42:26;;;;;;;34.13;13.52;;;;;;;5.04;78.67;99740.47;5084537;28;20430;-51
2023/01/20 07:44:52;;;;;;;32.72;13.18;;;;;;;4.99;78.65;99725.94;5086283;28;20040;-46
2023/01/20 07:47:18;;;;;;;31.38;12.98;;;;;;;4.98;78.79;99739.69;5083796;28;20044;-48
2023/01/20 07:49:44;;;;;;;33.08;14.80;;;;;;;4.90;78.77;99710.59;5077855;28;20040;-49
2023/01/20 07:52:10;;;;;;;34.92;14.68;;;;;;;5.04;78.43;99730.19;5086843;28;20090;-50
2023/01/20 07:54:36;;;;;;;36.72;14.85;;;;;;;4.99;78.88;99731.94;5079590;28;20039;-48
2023/01/20 07:57:02;;;;;;;36.10;15.20;;;;;;;5.05;78.94;99731.88;5088189;28;20123;-51
2023/01/20 07:59:28;;;;;;;36.70;14.30;;;;;;;5.01;78.73;99729.38;5089453;28;20393;-49
2023/01/20 08:01:54;;;;;;;34.33;15.30;;;;;;;5.03;78.63;99732.75;5087360;28;20039;-50
2023/01/20 08:04:20;;;;;;;35.20;14.13;;;;;;;5.01;78.58;99737.09;5081588;28;20047;-48
2023/01/20 08:06:47;;;;;;;30.38;13.13;;;;;;;4.83;78.53;99711.53;5086499;28;20040;-47
2023/01/20 08:09:13;;;;;;;42.95;13.77;;;;;;;4.98;78.19;99752.56;5090119;28;20089;-47
2023/01/20 08:11:39;;;;;;;33.22;13.70;;;;;;;4.89;78.41;99732.94;5078301;28;20473;-49
2023/01/20 08:14:06;;;;;;;38.75;14.48;;;;;;;4.97;78.60;99723.38;5081607;28;20063;-48
2023/01/20 08:16:32;;;;;;;41.05;14.95;;;;;;;4.88;78.76;99715.75;5080734;28;20499;-47
2023/01/20 08:18:57;;;;;;;38.25;13.75;;;;;;;4.91;78.86;99712.31;5091943;28;20039;-49
2023/01/20 08:21:26;;;;;;;29.35;13.80;;;;;;;5.07;78.31;99734.47;5085107;28;20376;-50
2023/01/20 08:23:54;;;;;;;37.15;13.18;;;;;;;5.07;78.17;99730.16;5084170;28;20059;-48
2023/01/20 08:26:23;;;;;;;38.78;14.00;;;;;;;5.11;77.95;99736.97;5079633;28;20052;-46
2023/01/20 08:28:49;;;;;;;36.00;13.15;;;;;;;5.08;77.85;99738.72;5081700;28;20516;-46
2023/01/20 08:31:17;;;;;;;35.72;14.13;;;;;;;5.05;77.98;99739.63;5085984;28;20044;-46
2023/01/20 08:33:43;;;;;;;39.58;14.50;;;;;;;4.77;77.94;99691.84;5051559;28;20044;-51
2023/01/20 08:36:19;;;;;;;39.38;14.70;;;;;;;5.05;78.13;99749.06;5088386;28;20039;-47
2023/01/20 08:38:45;;;;;;;39.33;14.55;;;;;;;4.87;77.79;99720.91;5070970;28;20079;-47
2023/01/20 08:41:24;;;;;;;38.25;13.75;;;;;;;5.01;78.20;99755.13;5088687;28;20036;-50
2023/01/20 08:43:49;;;;;;;35.05;14.55;;;;;;;5.03;77.67;99745.63;5055238;28;20037;-51
2023/01/20 08:46:17;;;;;;;31.45;13.13;;;;;;;5.04;78.11;99749.94;5070720;28;20115;-51
2023/01/20 08:48:43;;;;;;;34.53;13.00;;;;;;;4.91;78.12;99725.19;5104264;28;20134;-48
2023/01/20 08:51:15;;;;;;;30.20;12.80;;;;;;;5.08;77.92;99756.75;5089885;28;20127;-47
2023/01/20 08:53:41;;;;;;;31.80;13.43;;;;;;;5.05;77.44;99749.06;5073887;28;20044;-47
2023/01/20 08:56:09;;;;;;;30.67;13.20;;;;;;;5.12;78.12;99745.56;5069727;28;20512;-49
2023/01/20 08:58:35;;;;;;;32.80;13.18;;;;;;;4.94;77.37;99720.00;5081430;28;20048;-51
2023/01/20 09:01:01;;;;;;;28.25;13.43;;;;;;;5.17;77.53;99771.28;5089569;28;20079;-50
2023/01/20 09:03:27;;;;;;;32.40;12.63;;;;;;;5.10;77.24;99765.34;5080014;28;20125;-48
2023/01/20 09:05:53;;;;;;;31.85;14.02;;;;;;;5.09;77.80;99761.03;5068566;28;20058;-50
2023/01/20 09:08:19;;;;;;;35.35;12.52;;;;;;;5.11;77.68;99780.78;5072538;28;20129;-47
2023/01/20 09:10:45;;;;;;;39.28;14.60;;;;;;;5.09;77.66;99772.19;5065809;28;20161;-49
2023/01/20 09:13:11;;;;;;;25.17;11.50;;;;;;;5.10;77.57;99773.06;5088023;28;20040;-49
2023/01/20 09:15:37;;;;;;;34.55;14.05;;;;;;;4.98;77.38;99747.41;5074826;28;20036;-48
2023/01/20 09:18:03;;;;;;;34.17;13.43;;;;;;;5.19;77.21;99796.16;5082504;28;20134;-49
2023/01/20 09:20:29;;;;;;;36.55;14.77;;;;;;;5.07;77.11;99763.66;5082297;28;20036;-47
2023/01/20 09:22:58;;;;;;;42.75;14.75;;;;;;;5.06;76.94;99748.19;5063380;28;20048;-48
2023/01/20 09:25:24;;;;;;;37.50;14.40;;;;;;;5.27;77.12;99784.03;5070654;28;20127;-51
2023/01/20 09:27:50;;;;;;;35.50;14.05;;;;;;;5.20;76.57;99774.66;5074570;28;20033;-45
2023/01/20 09:30:16;;;;;;;33.40;13.65;;;;;;;5.31;76.58;99790.88;5082185;28;20792;-51
2023/01/20 09:32:42;;;;;;;39.33;14.50;;;;;;;5.36;76.38;99783.94;5079704;28;20464;-49
2023/01/20 09:35:08;;;;;;;35.40;13.63;;;;;;;5.42;76.56;99781.28;5085559;28;20138;-48
2023/01/20 09:46:16;;;;;;;32.92;14.65;;;;;;;5.38;75.79;99792.50;5082473;28;20097;-50
2023/01/20 09:54:26;;;;;;;37.92;13.57;;;;;;;5.11;75.06;99765.31;5083443;28;20395;-45
2023/01/20 09:56:54;;;;;;;32.38;11.60;;;;;;;5.46;75.41;99833.66;5065000;28;20040;-52
2023/01/20 09:59:27;;;;;;;31.98;12.65;;;;;;;5.38;75.36;99807.97;5066773;28;20591;-48
2023/01/20 10:01:56;;;;;;;36.58;14.75;;;;;;;5.30;75.32;99786.56;5078403;28;20443;-47
2023/01/20 10:04:36;;;;;;;33.75;13.50;;;;;;;5.46;74.97;99816.47;5067571;28;20047;-50
2023/01/20 10:07:02;;;;;;;35.22;14.15;;;;;;;5.47;75.58;99810.44;5084262;28;20158;-52
2023/01/20 10:09:52;;;;;;;33.53;12.75;;;;;;;5.47;75.28;99809.59;5074185;28;20111;-48
2023/01/20 10:12:26;;;;;;;30.50;12.45;;;;;;;5.47;75.22;99810.44;5073032;28;20045;-49
2023/01/20 10:15:11;;;;;;;33.92;12.57;;;;;;;5.49;75.29;99811.28;5087683;28;20435;-49
2023/01/20 10:17:44;;;;;;;34.80;14.00;;;;;;;5.52;74.65;99810.38;5079715;28;20131;-46
2023/01/20 10:20:31;;;;;;;31.70;12.95;;;;;;;5.47;75.01;99800.13;5081539;28;20036;-49
2023/01/20 10:23:10;;;;;;;32.63;13.65;;;;;;;5.29;74.59;99782.28;5070736;28;20042;-49
2023/01/20 10:25:38;;;;;;;31.23;13.15;;;;;;;5.51;74.46;99804.38;5083548;28;20040;-48
2023/01/20 10:28:14;;;;;;;31.30;11.90;;;;;;;5.54;74.25;99795.75;5074364;28;20046;-51
2023/01/20 10:30:40;;;;;;;27.98;11.57;;;;;;;5.52;73.76;99803.50;5091353;28;20572;-49
2023/01/20 10:33:11;;;;;;;34.53;12.82;;;;;;;5.58;74.26;99792.25;5090745;28;20422;-47
2023/01/20 10:35:43;;;;;;;31.90;13.05;;;;;;;5.43;74.22;99774.41;5091069;28;20082;-47
2023/01/20 10:38:20;;;;;;;31.95;12.77;;;;;;;5.62;73.79;99800.81;5090245;28;20048;-47
2023/01/20 10:40:52;;;;;;;38.42;13.43;;;;;;;5.67;73.75;99794.72;5070301;28;20035;-45
2023/01/20 10:43:19;;;;;;;34.20;12.88;;;;;;;5.52;73.71;99762.25;5092972;28;20037;-44
2023/01/20 10:46:17;;;;;;;29.67;12.82;;;;;;;5.66;74.08;99802.47;5071642;28;20354;-46
2023/01/20 10:48:53;;;;;;;30.52;12.07;;;;;;;5.68;73.41;99813.63;5083461;28;20135;-43
2023/01/20 10:51:25;;;;;;;30.50;13.10;;;;;;;5.69;73.54;99808.47;5077960;28;20042;-48
2023/01/20 10:54:19;;;;;;;34.13;13.43;;;;;;;5.70;73.67;99815.34;5062516;28;20044;-47
2023/01/20 10:56:54;;;;;;;27.92;11.85;;;;;;;5.66;73.07;99807.63;5075507;28;20042;-43
2023/01/20 10:59:46;;;;;;;29.75;11.90;;;;;;;5.68;73.64;99821.38;5087140;28;20135;-45
2023/01/20 11:02:15;;;;;;;23.13;11.40;;;;;;;5.65;73.23;99811.97;5082486;28;20055;-44
2023/01/20 11:04:41;;;;;;;31.90;11.40;;;;;;;5.65;72.87;99805.94;5090998;28;20089;-53
2023/01/20 11:07:15;;;;;;;26.85;11.80;;;;;;;5.68;73.58;99823.94;5090325;28;20039;-46
2023/01/20 11:09:41;;;;;;;29.38;12.50;;;;;;;5.68;73.18;99800.72;5086718;28;20131;-51
2023/01/20 11:12:26;;;;;;;33.15;13.35;;;;;;;5.77;72.82;99806.63;5047945;28;20039;-49
2023/01/20 11:14:58;;;;;;;28.98;12.48;;;;;;;5.62;73.00;99773.28;5077663;28;20428;-48
2023/01/20 11:17:24;;;;;;;29.60;12.10;;;;;;;5.70;72.65;99789.53;5084282;28;20047;-44
2023/01/20 11:19:55;;;;;;;32.88;12.48;;;;;;;5.83;72.48;99822.03;5076779;28;20040;-46
2023/01/20 11:22:29;;;;;;;31.35;11.73;;;;;;;5.83;73.06;99826.34;5071830;28;20054;-45
2023/01/20 11:25:00;;;;;;;34.92;13.60;;;;;;;5.82;72.74;99815.16;5074721;28;20096;-45
2023/01/20 11:27:28;;;;;;;22.45;9.93;;;;;;;5.79;72.76;99835.84;5065265;28;20135;-46
2023/01/20 11:30:10;;;;;;;29.55;12.95;;;;;;;5.75;72.66;99812.69;5058864;28;20048;-45
2023/01/20 11:32:38;;;;;;;25.15;12.48;;;;;;;5.80;73.22;99827.25;5081543;28;20058;-48
2023/01/20 11:35:34;;;;;;;26.87;10.73;;;;;;;5.75;72.44;99812.69;5083794;28;20049;-45
2023/01/20 11:38:22;;;;;;;32.50;12.07;;;;;;;5.60;72.75;99789.69;5053904;28;20523;-45
2023/01/20 11:40:56;;;;;;;26.45;12.20;;;;;;;5.82;72.40;99824.63;5082478;28;20044;-47
2023/01/20 11:43:35;;;;;;;25.95;10.52;;;;;;;5.59;72.41;99799.13;5064118;28;20087;-47
2023/01/20 11:46:18;;;;;;;27.50;11.77;;;;;;;5.83;73.06;99822.03;5077891;28;20062;-45
2023/01/20 11:48:44;;;;;;;31.08;11.57;;;;;;;5.78;72.48;99822.97;5079875;28;20043;-49